Time;durP1;ratioP1;P1;durP2;ratioP2;P2;SDS_P1;SDS_P2;PMS_P1;PMS_P2;Temp;Humidity;BMP_temperature;BMP_pressure;BME280_temperature;BME280_humidity;BME280_pressure;Samples;Min_cycle;Max_cycle;Signal;HPM_P1;HPM_P2
2023/08/21 00:00:38;;;;;;;13.10;8.90;;;;;;;19.84;100.00;100223.88;105867;1256;61362;-65
2023/08/21 00:03:06;;;;;;;11.20;7.90;;;;;;;19.80;100.00;100225.90;105900;1251;71897;-64
2023/08/21 00:05:34;;;;;;;10.70;7.90;;;;;;;19.76;100.00;100223.15;105873;1251;66102;-65
2023/08/21 00:08:02;;;;;;;11.90;9.20;;;;;;;19.71;100.00;100222.70;105905;1252;72100;-65
2023/08/21 00:10:31;;;;;;;16.60;9.70;;;;;;;19.66;100.00;100222.77;105978;1257;59602;-65
2023/08/21 00:12:59;;;;;;;12.10;8.40;;;;;;;19.63;100.00;100218.27;105787;1251;59774;-62
2023/08/21 00:15:27;;;;;;;14.00;7.80;;;;;;;19.60;100.00;100224.55;105806;1256;73451;-62
2023/08/21 00:17:55;;;;;;;11.70;7.80;;;;;;;19.57;100.00;100223.23;106028;1251;66887;-64
2023/08/21 00:20:23;;;;;;;12.20;8.00;;;;;;;19.56;100.00;100229.83;105891;1257;72781;-65
2023/08/21 00:22:51;;;;;;;13.00;8.60;;;;;;;19.53;100.00;100224.81;105930;1251;60186;-65
2023/08/21 00:25:18;;;;;;;13.00;8.40;;;;;;;19.52;100.00;100227.29;105847;1251;59608;-62
2023/08/21 00:27:46;;;;;;;12.70;8.10;;;;;;;19.50;100.00;100227.58;106152;1251;71788;-66
2023/08/21 00:30:17;;;;;;;12.40;8.70;;;;;;;19.49;100.00;100223.38;106087;1255;66288;-64
2023/08/21 00:32:45;;;;;;;12.50;8.60;;;;;;;19.47;100.00;100220.91;105951;1256;72651;-64
2023/08/21 00:35:13;;;;;;;14.40;8.50;;;;;;;19.44;100.00;100224.27;105743;1251;61725;-65
2023/08/21 00:37:41;;;;;;;14.80;8.90;;;;;;;19.42;100.00;100221.38;105886;1251;59608;-64
2023/08/21 00:40:09;;;;;;;12.70;7.90;;;;;;;19.39;100.00;100221.88;106074;1251;73500;-67
2023/08/21 00:42:37;;;;;;;12.80;8.10;;;;;;;19.37;100.00;100224.69;105940;1257;67012;-65
2023/08/21 00:45:08;;;;;;;14.10;8.20;;;;;;;19.34;100.00;100230.19;105878;1256;71485;-65
2023/08/21 00:47:35;;;;;;;11.00;7.60;;;;;;;19.29;100.00;100220.44;106014;1257;60367;-63
2023/08/21 00:50:04;;;;;;;9.30;7.60;;;;;;;19.23;100.00;100218.02;106232;1250;59822;-66
2023/08/21 00:52:32;;;;;;;12.80;8.30;;;;;;;19.19;100.00;100224.09;105679;1258;75375;-65
2023/08/21 00:55:00;;;;;;;12.10;8.30;;;;;;;19.16;100.00;100228.48;105967;1255;65837;-64
2023/08/21 00:57:28;;;;;;;14.70;8.60;;;;;;;19.13;100.00;100226.27;105798;1253;72340;-63
2023/08/21 00:59:56;;;;;;;13.40;7.40;;;;;;;19.09;100.00;100225.70;105782;1251;61737;-66
2023/08/21 01:02:25;;;;;;;11.00;7.30;;;;;;;19.07;100.00;100222.79;106032;1251;60080;-65
2023/08/21 01:04:53;;;;;;;15.90;7.80;;;;;;;19.04;100.00;100226.80;105951;1256;75692;-65
2023/08/21 01:07:21;;;;;;;12.00;8.40;;;;;;;19.02;100.00;100228.85;105943;1257;66463;-65
2023/08/21 01:10:04;;;;;;;13.30;7.60;;;;;;;18.98;100.00;100227.94;105988;1254;72797;-66
2023/08/21 01:12:41;;;;;;;11.80;7.40;;;;;;;18.94;100.00;100225.91;105984;1251;61676;-63
2023/08/21 01:15:09;;;;;;;9.60;7.20;;;;;;;18.89;100.00;100221.33;105837;1251;60130;-62
2023/08/21 01:17:37;;;;;;;12.70;7.50;;;;;;;18.85;100.00;100218.78;105852;1257;73666;-64
2023/08/21 01:20:08;;;;;;;13.00;8.00;;;;;;;18.82;100.00;100218.88;105731;1251;66901;-63
2023/08/21 01:22:40;;;;;;;11.30;7.50;;;;;;;18.79;100.00;100220.22;105802;1251;72129;-63
2023/08/21 01:25:09;;;;;;;12.10;7.60;;;;;;;18.77;100.00;100220.59;105560;1254;60745;-64
2023/08/21 01:27:37;;;;;;;10.30;7.70;;;;;;;18.75;100.00;100219.28;105853;1251;60034;-64
2023/08/21 01:30:06;;;;;;;11.60;7.90;;;;;;;18.74;100.00;100222.77;105772;1259;73084;-63
2023/08/21 01:32:46;;;;;;;12.00;7.80;;;;;;;18.74;100.00;100219.63;105777;1251;65738;-62
2023/08/21 01:35:13;;;;;;;12.00;8.00;;;;;;;18.73;100.00;100219.21;105921;1256;72805;-62
2023/08/21 01:37:41;;;;;;;11.60;7.90;;;;;;;18.70;100.00;100215.44;105773;1257;62268;-63
2023/08/21 01:40:10;;;;;;;13.30;7.70;;;;;;;18.69;100.00;100214.20;105783;1251;59743;-64
2023/08/21 01:42:38;;;;;;;10.50;7.10;;;;;;;18.67;100.00;100212.84;105838;1251;72629;-63
2023/08/21 01:45:07;;;;;;;12.80;7.00;;;;;;;18.65;100.00;100211.02;106071;1251;66019;-67
2023/08/21 01:47:35;;;;;;;10.70;6.40;;;;;;;18.64;100.00;100209.58;105834;1255;71494;-63
2023/08/21 01:50:03;;;;;;;10.10;6.10;;;;;;;18.63;100.00;100213.10;105698;1258;61739;-63
2023/08/21 01:52:31;;;;;;;8.90;6.40;;;;;;;18.63;100.00;100209.17;105873;1251;59780;-63
2023/08/21 01:54:59;;;;;;;11.80;6.40;;;;;;;18.62;100.00;100209.48;105908;1257;73617;-65
2023/08/21 01:57:27;;;;;;;10.00;5.70;;;;;;;18.61;100.00;100211.58;106023;1251;65639;-63
2023/08/21 01:59:55;;;;;;;9.50;6.40;;;;;;;18.60;100.00;100214.40;106001;1257;72718;-63
2023/08/21 02:02:23;;;;;;;7.70;5.60;;;;;;;18.61;100.00;100214.33;105783;1251;61804;-64
2023/08/21 02:04:51;;;;;;;10.40;6.10;;;;;;;18.61;100.00;100218.17;106319;1256;60081;-67
2023/08/21 02:07:19;;;;;;;10.50;6.10;;;;;;;18.61;100.00;100219.02;105578;1256;73119;-64
2023/08/21 02:09:49;;;;;;;9.60;5.40;;;;;;;18.61;100.00;100219.81;105970;1256;65656;-63
2023/08/21 02:12:16;;;;;;;8.00;5.20;;;;;;;18.60;100.00;100214.35;105995;1251;72664;-63
2023/08/21 02:14:46;;;;;;;8.60;4.80;;;;;;;18.62;100.00;100218.98;105889;1251;59721;-64
2023/08/21 02:17:14;;;;;;;5.60;3.60;;;;;;;18.65;100.00;100221.84;105810;1251;59639;-64
2023/08/21 02:19:42;;;;;;;6.80;4.10;;;;;;;18.69;100.00;100220.89;105934;1253;73048;-63
2023/08/21 02:22:10;;;;;;;6.60;4.00;;;;;;;18.74;100.00;100221.27;105909;1257;65723;-63
2023/08/21 02:24:38;;;;;;;5.40;4.00;;;;;;;18.75;100.00;100226.05;105873;1251;72658;-63
2023/08/21 02:27:06;;;;;;;7.40;4.60;;;;;;;18.77;100.00;100228.36;105840;1251;61821;-68
2023/08/21 02:29:34;;;;;;;6.50;4.60;;;;;;;18.79;100.00;100225.18;105891;1252;60099;-65
2023/08/21 02:32:03;;;;;;;7.20;5.10;;;;;;;18.78;100.00;100227.95;105939;1251;73053;-64
2023/08/21 02:34:31;;;;;;;10.40;5.10;;;;;;;18.74;100.00;100231.17;106056;1255;66927;-64
2023/08/21 02:36:59;;;;;;;7.50;4.30;;;;;;;18.71;100.00;100227.22;106051;1256;72729;-65
2023/08/21 02:39:28;;;;;;;12.60;7.80;;;;;;;18.68;100.00;100223.64;105771;1254;61724;-65
2023/08/21 02:41:55;;;;;;;33.50;26.20;;;;;;;18.66;100.00;100220.54;105751;1251;60456;-66
2023/08/21 02:44:23;;;;;;;11.80;7.70;;;;;;;18.67;100.00;100223.81;106120;1252;73871;-63
2023/08/21 02:46:51;;;;;;;11.20;6.30;;;;;;;18.67;100.00;100219.75;106129;1257;65799;-67
2023/08/21 02:49:19;;;;;;;9.20;5.00;;;;;;;18.65;100.00;100213.98;106121;1251;71417;-68
2023/08/21 02:51:47;;;;;;;7.90;4.60;;;;;;;18.68;100.00;100214.13;105577;1257;61712;-65
2023/08/21 02:54:14;;;;;;;6.40;4.30;;;;;;;18.71;100.00;100219.09;105586;1251;60424;-64
2023/08/21 02:56:42;;;;;;;18.70;16.70;;;;;;;18.71;100.00;100217.67;106119;1256;73868;-63
2023/08/21 02:59:11;;;;;;;10.30;6.40;;;;;;;18.75;100.00;100215.12;105735;1252;66937;-64
2023/08/21 03:01:38;;;;;;;8.90;6.00;;;;;;;18.78;100.00;100214.95;105797;1257;72673;-65
2023/08/21 03:04:06;;;;;;;7.40;4.90;;;;;;;18.81;100.00;100213.11;105772;1254;60413;-64
2023/08/21 03:06:34;;;;;;;7.30;4.80;;;;;;;18.84;100.00;100209.52;105796;1254;60485;-63
2023/08/21 03:09:02;;;;;;;7.00;4.50;;;;;;;18.86;100.00;100211.28;105845;1251;73895;-67
2023/08/21 03:11:30;;;;;;;7.20;4.40;;;;;;;18.88;100.00;100216.61;105871;1256;65693;-65
2023/08/21 03:13:57;;;;;;;11.30;6.10;;;;;;;18.93;100.00;100213.84;105845;1257;72661;-65
2023/08/21 03:16:25;;;;;;;11.50;6.20;;;;;;;19.00;100.00;100210.31;105847;1256;60506;-63
2023/08/21 03:18:55;;;;;;;9.90;6.60;;;;;;;19.07;100.00;100202.20;105604;1252;61113;-65
2023/08/21 03:21:23;;;;;;;7.90;5.20;;;;;;;19.15;100.00;100204.64;105846;1260;73838;-65
2023/08/21 03:23:56;;;;;;;8.60;5.10;;;;;;;19.24;100.00;100207.26;105949;1256;66916;-63
2023/08/21 03:26:23;;;;;;;8.60;5.20;;;;;;;19.35;100.00;100206.64;105787;1251;71398;-64
2023/08/21 03:28:52;;;;;;;7.40;5.10;;;;;;;19.52;100.00;100204.77;105830;1255;60501;-63
2023/08/21 03:31:20;;;;;;;7.30;4.90;;;;;;;19.75;100.00;100202.66;105744;1256;60565;-67
2023/08/21 03:33:47;;;;;;;7.20;4.50;;;;;;;20.03;100.00;100204.70;105718;1258;72657;-64
2023/08/21 03:36:15;;;;;;;6.80;4.60;;;;;;;20.48;100.00;100198.60;105878;1255;65710;-63
2023/08/21 03:38:43;;;;;;;8.30;4.70;;;;;;;21.28;100.00;100195.30;105797;1254;71492;-64
2023/08/21 03:41:11;;;;;;;6.80;4.40;;;;;;;22.38;100.00;100183.08;105785;1264;60437;-64
2023/08/21 03:43:40;;;;;;;7.60;4.60;;;;;;;23.58;100.00;100170.17;105513;1259;60492;-63
2023/08/21 03:46:07;;;;;;;8.00;4.50;;;;;;;24.80;100.00;100152.73;105807;1253;73907;-65
2023/08/21 03:48:35;;;;;;;7.50;4.50;;;;;;;25.96;100.00;100136.59;105804;1252;65463;-64
2023/08/21 03:51:03;;;;;;;7.50;4.60;;;;;;;27.11;100.00;100116.12;105731;1251;72673;-63
2023/08/21 03:53:31;;;;;;;4.90;3.90;;;;;;;28.23;100.00;100111.55;106027;1254;60574;-65
2023/08/21 03:56:00;;;;;;;7.50;4.50;;;;;;;29.34;100.00;100111.08;105935;1256;60399;-63
2023/08/21 03:58:27;;;;;;;6.30;4.70;;;;;;;30.33;100.00;100108.19;105768;1251;73894;-63
2023/08/21 04:00:57;;;;;;;6.00;4.60;;;;;;;31.17;100.00;100098.05;105947;1251;64969;-65
2023/08/21 04:03:25;;;;;;;7.90;5.00;;;;;;;31.83;100.00;100099.59;105620;1258;72717;-67
2023/08/21 04:05:54;;;;;;;7.00;4.70;;;;;;;32.51;100.00;100103.85;105754;1255;60536;-63
2023/08/21 04:08:22;;;;;;;6.90;4.20;;;;;;;33.21;98.44;100103.30;105909;1251;60587;-63
2023/08/21 04:10:52;;;;;;;7.00;4.10;;;;;;;33.90;90.81;100105.23;105840;1251;72895;-69
2023/08/21 04:13:21;;;;;;;;;;;;;;;34.55;80.62;100109.06;105681;1257;66926;-65
2023/08/21 04:15:49;;;;;;;6.00;3.50;;;;;;;35.13;70.88;100103.67;105728;1257;62564;-66
2023/08/21 04:18:17;;;;;;;7.20;4.10;;;;;;;35.68;63.45;100102.57;105990;1251;60414;-64
2023/08/21 04:21:01;;;;;;;7.80;4.60;;;;;;;36.23;54.64;100098.78;105686;1257;59336;-65
2023/08/21 04:23:29;;;;;;;8.40;5.00;;;;;;;36.63;50.23;100097.88;105584;1252;64937;-66
2023/08/21 04:26:02;;;;;;;6.60;4.40;;;;;;;36.96;46.05;100098.79;105871;1256;60338;-63
2023/08/21 04:28:32;;;;;;;7.50;4.50;;;;;;;37.17;43.47;100104.48;105796;1257;62426;-63
2023/08/21 04:31:00;;;;;;;6.60;4.40;;;;;;;37.28;41.81;100106.11;105676;1259;60421;-63
2023/08/21 04:33:29;;;;;;;6.10;4.40;;;;;;;37.45;41.11;100105.34;105822;1257;60293;-65
2023/08/21 04:35:57;;;;;;;7.30;4.20;;;;;;;37.76;39.93;100099.44;105851;1251;64939;-63
2023/08/21 04:38:25;;;;;;;7.60;4.40;;;;;;;38.20;38.92;100102.05;105711;1256;60341;-63
2023/08/21 04:40:53;;;;;;;8.50;5.20;;;;;;;38.70;38.09;100102.84;105983;1254;63723;-66
2023/08/21 04:43:20;;;;;;;6.60;5.20;;;;;;;39.17;36.83;100102.02;106114;1251;60424;-65
2023/08/21 04:45:50;;;;;;;8.70;5.90;;;;;;;39.61;35.76;100097.34;105708;1256;60427;-62
2023/08/21 04:48:19;;;;;;;7.50;5.90;;;;;;;39.97;34.80;100096.63;105577;1259;65052;-65
2023/08/21 04:50:47;;;;;;;9.20;6.90;;;;;;;40.29;33.65;100099.81;106158;1258;59156;-64
2023/08/21 04:53:17;;;;;;;8.60;6.50;;;;;;;40.58;33.06;100102.81;105897;1257;63833;-66
2023/08/21 04:55:45;;;;;;;9.00;7.80;;;;;;;40.96;32.41;100103.73;105687;1257;60455;-63
2023/08/21 04:58:13;;;;;;;12.30;8.40;;;;;;;41.28;31.62;100105.08;105787;1256;60427;-63
2023/08/21 05:00:44;;;;;;;12.60;7.70;;;;;;;41.48;30.89;100102.36;105838;1251;65047;-63
2023/08/21 05:03:12;;;;;;;9.10;7.10;;;;;;;41.57;30.42;100098.83;105773;1258;60623;-62
2023/08/21 05:05:41;;;;;;;8.10;7.20;;;;;;;41.69;30.25;100095.95;105660;1257;62509;-65
2023/08/21 05:08:09;;;;;;;10.70;7.80;;;;;;;41.87;29.61;100098.54;105812;1257;60530;-64
2023/08/21 05:10:36;;;;;;;9.40;8.10;;;;;;;41.97;29.49;100099.11;105762;1257;60558;-64
2023/08/21 05:13:04;;;;;;;14.00;10.20;;;;;;;42.09;29.27;100095.98;105886;1257;63677;-64
2023/08/21 05:15:32;;;;;;;11.70;10.00;;;;;;;42.18;28.51;100091.21;105847;1257;60479;-62
2023/08/21 05:18:01;;;;;;;12.60;9.90;;;;;;;42.22;28.10;100090.95;105907;1253;63908;-66
2023/08/21 05:20:29;;;;;;;13.90;9.70;;;;;;;42.25;27.85;100095.11;105967;1255;60552;-66
2023/08/21 05:22:57;;;;;;;13.40;9.50;;;;;;;42.24;27.67;100093.77;106109;1251;60433;-66
2023/08/21 05:33:12;;;;;;;10.20;8.00;;;;;;;42.84;27.24;100098.38;102959;1287;600265;-64
2023/08/21 05:35:41;;;;;;;9.40;7.80;;;;;;;43.07;26.92;100099.02;105861;1257;59309;-61
2023/08/21 05:38:10;;;;;;;8.30;7.50;;;;;;;43.24;26.54;100094.70;106027;1256;59158;-63
2023/08/21 05:40:37;;;;;;;8.10;6.40;;;;;;;43.23;26.31;100094.70;105702;1259;63390;-65
2023/08/21 05:43:05;;;;;;;13.10;7.20;;;;;;;43.22;26.35;100091.64;105692;1258;59296;-68
2023/08/21 05:45:33;;;;;;;11.20;8.70;;;;;;;43.22;26.29;100081.46;105893;1254;63976;-64
2023/08/21 05:48:01;;;;;;;10.10;9.10;;;;;;;43.19;26.49;100078.77;105806;1254;196053;-65
2023/08/21 05:50:30;;;;;;;11.10;7.80;;;;;;;42.99;26.32;100077.78;106060;1249;59359;-65
2023/08/21 05:52:57;;;;;;;10.30;8.60;;;;;;;42.79;26.36;100074.92;106164;1250;63373;-64
2023/08/21 05:55:25;;;;;;;10.70;8.50;;;;;;;42.69;26.44;100067.83;105846;1256;59288;-64
2023/08/21 05:57:53;;;;;;;11.60;9.60;;;;;;;42.71;26.39;100067.27;105921;1254;63943;-64
2023/08/21 06:00:21;;;;;;;16.30;10.90;;;;;;;42.69;26.61;100065.71;106229;1254;59672;-65
2023/08/21 06:02:48;;;;;;;20.30;17.90;;;;;;;42.64;26.96;100063.70;106034;1252;59644;-65
2023/08/21 06:05:33;;;;;;;21.10;18.70;;;;;;;42.71;26.99;100060.20;105996;1249;62915;-64
2023/08/21 06:08:02;;;;;;;20.10;17.80;;;;;;;42.83;26.83;100058.20;106139;1251;59710;-69
2023/08/21 06:10:31;;;;;;;20.80;17.60;;;;;;;42.94;26.64;100058.08;106003;1254;63875;-66
2023/08/21 06:12:59;;;;;;;20.40;18.10;;;;;;;43.05;26.83;100057.19;106028;1250;59605;-66
2023/08/21 06:15:27;;;;;;;17.90;16.00;;;;;;;43.20;26.59;100057.42;105939;1250;59612;-65
2023/08/21 06:17:55;;;;;;;18.50;15.90;;;;;;;43.34;26.30;100051.14;106026;1250;62894;-63
2023/08/21 06:20:22;;;;;;;18.20;15.50;;;;;;;43.29;26.15;100054.81;105868;1254;59637;-64
2023/08/21 06:22:50;;;;;;;21.80;19.60;;;;;;;43.17;26.52;100056.60;106129;1251;63943;-66
2023/08/21 06:25:19;;;;;;;22.90;20.50;;;;;;;43.21;26.36;100056.02;105955;1251;59576;-66
2023/08/21 06:27:47;;;;;;;26.60;20.90;;;;;;;43.33;26.17;100047.55;105832;1250;59643;-64
2023/08/21 06:30:26;;;;;;;23.40;19.80;;;;;;;43.42;25.72;100045.62;106246;1250;62927;-66
2023/08/21 06:32:55;;;;;;;24.30;21.10;;;;;;;43.46;25.77;100042.52;106146;1249;59608;-64
2023/08/21 06:35:23;;;;;;;21.10;18.70;;;;;;;43.49;25.61;100039.36;106075;1257;62564;-65
2023/08/21 06:37:54;;;;;;;22.00;13.10;;;;;;;43.58;25.32;100039.33;106208;1250;59729;-64
2023/08/21 06:40:22;;;;;;;15.40;12.10;;;;;;;43.63;25.14;100038.70;105647;1251;59525;-67
2023/08/21 06:42:53;;;;;;;13.40;11.50;;;;;;;43.74;24.95;100035.17;105878;1251;62807;-63
2023/08/21 06:45:23;;;;;;;13.70;10.60;;;;;;;43.90;24.98;100032.36;105639;1251;59665;-64
2023/08/21 06:47:52;;;;;;;15.80;9.80;;;;;;;44.02;24.99;100032.73;105809;1252;62474;-63
2023/08/21 06:50:20;;;;;;;13.60;9.20;;;;;;;44.14;24.89;100035.12;105861;1254;59692;-63
2023/08/21 06:52:48;;;;;;;10.70;8.60;;;;;;;44.39;24.56;100039.36;105675;1257;59598;-64
2023/08/21 06:55:16;;;;;;;12.70;8.30;;;;;;;44.69;24.47;100041.50;105814;1251;62820;-64
2023/08/21 06:57:43;;;;;;;13.00;8.70;;;;;;;44.97;24.08;100039.10;105900;1255;59714;-64
2023/08/21 07:00:12;;;;;;;10.20;8.40;;;;;;;45.27;24.11;100037.80;105996;1251;63947;-65
2023/08/21 07:02:40;;;;;;;11.70;8.80;;;;;;;45.53;23.86;100037.02;106172;1251;59650;-66
2023/08/21 07:05:08;;;;;;;9.30;7.00;;;;;;;45.68;23.47;100035.65;105982;1251;59628;-64
2023/08/21 07:07:38;;;;;;;7.50;6.30;;;;;;;45.72;23.43;100032.10;105968;1251;64734;-63
2023/08/21 07:10:08;;;;;;;6.90;5.60;;;;;;;45.79;23.18;100031.64;105835;1257;59553;-63
2023/08/21 07:12:35;;;;;;;7.20;6.20;;;;;;;45.99;22.53;100027.23;105886;1256;63812;-66
2023/08/21 07:15:04;;;;;;;7.50;5.40;;;;;;;46.20;22.09;100027.90;105913;1250;59854;-64
2023/08/21 07:17:32;;;;;;;6.20;5.60;;;;;;;46.40;22.08;100024.48;105822;1258;59280;-66
2023/08/21 07:20:00;;;;;;;7.90;5.90;;;;;;;46.46;22.02;100022.93;105905;1250;62910;-63
2023/08/21 07:22:28;;;;;;;8.20;5.80;;;;;;;46.51;22.06;100022.77;105890;1250;60824;-66
2023/08/21 07:24:56;;;;;;;6.00;5.20;;;;;;;46.59;21.51;100023.53;106024;1257;64242;-63
2023/08/21 07:27:24;;;;;;;6.30;5.20;;;;;;;46.56;21.64;100021.46;106033;1252;59627;-65
2023/08/21 07:29:52;;;;;;;7.50;5.80;;;;;;;46.53;21.96;100019.64;105823;1251;59606;-64
2023/08/21 07:32:20;;;;;;;7.90;5.30;;;;;;;46.50;21.98;100016.98;105906;1251;62966;-67
2023/08/21 07:34:52;;;;;;;6.50;5.80;;;;;;;46.44;22.09;100015.27;105877;1257;59726;-64
2023/08/21 07:37:20;;;;;;;8.20;6.00;;;;;;;46.35;21.91;100014.63;106043;1254;63854;-68
2023/08/21 07:39:48;;;;;;;6.70;5.90;;;;;;;46.35;21.79;100014.23;105877;1251;59615;-63
2023/08/21 07:42:15;;;;;;;6.70;5.60;;;;;;;46.39;21.69;100010.98;105938;1251;59669;-66
2023/08/21 07:44:44;;;;;;;7.10;6.10;;;;;;;46.48;21.66;100009.61;105720;1254;64206;-64
2023/08/21 07:47:12;;;;;;;7.20;4.90;;;;;;;46.59;21.40;100008.23;106146;1251;59545;-66
2023/08/21 07:49:40;;;;;;;7.60;5.50;;;;;;;46.65;21.03;100007.30;105886;1250;63236;-64
2023/08/21 07:52:07;;;;;;;6.90;5.30;;;;;;;46.69;20.84;100006.80;106085;1252;59627;-64
2023/08/21 07:54:35;;;;;;;16.00;5.80;;;;;;;46.63;21.15;100004.35;105705;1254;59966;-65
2023/08/21 07:57:04;;;;;;;7.60;4.80;;;;;;;46.66;21.24;100008.30;106073;1251;64641;-66
2023/08/21 07:59:32;;;;;;;7.20;5.20;;;;;;;46.77;20.90;100005.48;105950;1251;59682;-63
2023/08/21 08:02:00;;;;;;;5.90;5.00;;;;;;;46.81;20.60;100007.01;105836;1254;62587;-64
2023/08/21 08:04:28;;;;;;;7.00;5.30;;;;;;;46.86;20.77;100004.58;106270;1251;59621;-66
2023/08/21 08:06:56;;;;;;;6.50;4.90;;;;;;;46.97;20.28;100004.53;105994;1256;59659;-66
2023/08/21 08:09:24;;;;;;;7.40;6.10;;;;;;;47.11;20.30;100005.61;105667;1251;64148;-63
2023/08/21 08:11:52;;;;;;;8.00;5.10;;;;;;;47.17;20.35;100007.49;106056;1251;59521;-63
2023/08/21 08:14:20;;;;;;;6.00;5.40;;;;;;;47.13;20.07;100008.48;105860;1256;62747;-63
2023/08/21 08:16:48;;;;;;;6.20;4.50;;;;;;;47.01;20.29;100007.80;105822;1251;59816;-64
2023/08/21 08:19:16;;;;;;;5.20;4.70;;;;;;;46.95;20.40;100005.45;106037;1257;59684;-65
2023/08/21 08:21:43;;;;;;;6.40;4.30;;;;;;;46.99;20.29;100008.00;106027;1251;64159;-63
2023/08/21 08:24:12;;;;;;;6.50;4.60;;;;;;;47.01;20.09;100006.86;106083;1253;69382;-62
2023/08/21 08:26:40;;;;;;;6.30;4.10;;;;;;;46.78;19.88;100002.19;105816;1251;62519;-63
2023/08/21 08:29:09;;;;;;;6.50;4.50;;;;;;;46.70;19.77;99996.30;105950;1254;59589;-65
2023/08/21 08:31:38;;;;;;;7.90;4.20;;;;;;;46.65;19.61;99998.73;105939;1256;59608;-63
2023/08/21 08:34:06;;;;;;;4.70;3.30;;;;;;;46.59;19.58;99996.20;106075;1250;63193;-65
2023/08/21 08:36:35;;;;;;;4.90;3.20;;;;;;;46.64;19.21;99996.94;105571;1251;59778;-63
2023/08/21 08:39:02;;;;;;;3.40;3.00;;;;;;;46.78;19.18;99989.05;106149;1251;62445;-64
2023/08/21 08:41:33;;;;;;;4.40;3.80;;;;;;;46.97;19.38;99988.52;105875;1251;59695;-63
2023/08/21 08:44:01;;;;;;;3.80;3.30;;;;;;;47.00;19.52;99988.12;105930;1251;59649;-65
2023/08/21 08:46:29;;;;;;;5.60;2.90;;;;;;;46.95;19.52;99984.31;105738;1256;64180;-64
2023/08/21 08:48:57;;;;;;;8.00;3.20;;;;;;;47.03;19.46;99983.22;105966;1251;59627;-61
2023/08/21 08:51:25;;;;;;;4.90;3.30;;;;;;;47.04;19.57;99977.89;106026;1257;63816;-65
2023/08/21 08:53:53;;;;;;;4.40;3.20;;;;;;;47.05;18.81;99977.97;105756;1255;59663;-63
2023/08/21 09:04:27;;;;;;;4.50;2.80;;;;;;;46.78;17.45;99965.50;102448;1289;605498;-63
2023/08/21 09:07:11;;;;;;;5.60;2.80;;;;;;;46.72;17.44;99967.63;105287;1267;59561;-63
2023/08/21 09:09:41;;;;;;;3.90;3.30;;;;;;;46.67;17.89;99965.86;105078;1264;59539;-64
2023/08/21 09:12:12;;;;;;;4.10;2.50;;;;;;;46.70;17.82;99963.66;105807;1256;63638;-68
2023/08/21 09:14:40;;;;;;;3.40;2.70;;;;;;;46.71;17.48;99961.27;105207;1257;59332;-63
2023/08/21 09:17:07;;;;;;;3.00;2.10;;;;;;;46.61;17.52;99962.02;105384;1259;209001;-63
2023/08/21 09:19:34;;;;;;;3.90;2.70;;;;;;;46.60;17.82;99962.21;105840;1258;59110;-64
2023/08/21 09:22:14;;;;;;;5.80;3.10;;;;;;;46.52;17.85;99964.46;105387;1258;59201;-63
2023/08/21 09:24:41;;;;;;;;;;;;;;;46.14;17.54;99960.80;105499;1253;64782;-63
2023/08/21 09:27:15;;;;;;;4.80;2.30;;;;;;;45.91;17.59;99962.42;105683;1254;59088;-62
2023/08/21 09:29:43;;;;;;;4.80;2.40;;;;;;;45.86;16.98;99961.58;105487;1254;63510;-64
2023/08/21 09:32:11;;;;;;;7.80;3.10;;;;;;;45.49;17.24;99959.39;105501;1253;59689;-64
2023/08/21 09:34:38;;;;;;;4.60;2.90;;;;;;;45.10;18.12;99960.40;105569;1258;59922;-63
2023/08/21 09:37:07;;;;;;;6.80;4.80;;;;;;;44.77;19.30;99966.25;105631;1258;64602;-63
2023/08/21 09:39:35;;;;;;;10.70;8.00;;;;;;;44.31;21.97;99971.89;106034;1254;59764;-63
2023/08/21 09:42:11;;;;;;;12.80;11.50;;;;;;;43.58;24.31;99979.54;106054;1259;63876;-64
2023/08/21 09:44:39;;;;;;;8.60;5.40;;;;;;;42.69;25.67;99980.10;105734;1254;59811;-63
2023/08/21 09:47:10;;;;;;;8.40;4.80;;;;;;;42.09;26.87;99978.46;105902;1254;59724;-67
2023/08/21 09:49:39;;;;;;;8.80;5.20;;;;;;;41.80;27.81;99976.23;105807;1254;63364;-63
2023/08/21 09:52:06;;;;;;;9.70;5.90;;;;;;;41.79;28.51;99978.97;105867;1250;59553;-63
2023/08/21 09:54:34;;;;;;;8.70;5.10;;;;;;;41.75;29.20;99979.70;105923;1250;63945;-65
2023/08/21 09:57:02;;;;;;;8.10;4.80;;;;;;;41.53;29.05;99984.54;106422;1254;59726;-62
2023/08/21 09:59:31;;;;;;;6.90;4.40;;;;;;;41.18;29.67;99983.45;105887;1252;59790;-65
2023/08/21 10:02:00;;;;;;;9.30;5.70;;;;;;;40.99;30.02;99982.73;106073;1251;64290;-65
2023/08/21 10:04:29;;;;;;;9.90;5.30;;;;;;;40.93;30.23;99986.11;105576;1252;59651;-63
2023/08/21 10:06:56;;;;;;;9.50;6.70;;;;;;;40.84;30.62;99982.92;105908;1251;62791;-62
2023/08/21 10:09:24;;;;;;;8.70;5.10;;;;;;;40.72;30.92;99983.27;105886;1251;59630;-64
2023/08/21 10:11:53;;;;;;;9.90;5.50;;;;;;;40.46;31.20;99981.52;105891;1255;59720;-64
2023/08/21 10:14:22;;;;;;;7.50;4.70;;;;;;;40.28;31.45;99980.13;106018;1252;64935;-64
2023/08/21 10:16:51;;;;;;;5.70;4.10;;;;;;;40.09;32.52;99982.05;106114;1256;59495;-63
2023/08/21 10:19:18;;;;;;;7.80;5.70;;;;;;;40.14;33.87;99982.54;106199;1250;62873;-66
2023/08/21 10:21:49;;;;;;;10.80;8.10;;;;;;;40.45;34.43;99986.04;105818;1250;59641;-63
2023/08/21 10:24:26;;;;;;;7.50;6.70;;;;;;;40.68;33.12;99981.48;106254;1253;59707;-64
2023/08/21 10:26:53;;;;;;;8.50;6.20;;;;;;;40.58;32.57;99981.27;106370;1250;64629;-63
2023/08/21 10:29:20;;;;;;;8.80;6.20;;;;;;;40.22;32.41;99984.18;106119;1254;59605;-65
2023/08/21 10:31:47;;;;;;;7.60;5.30;;;;;;;39.85;33.08;99980.86;105813;1251;63466;-61
2023/08/21 10:34:14;;;;;;;6.60;4.80;;;;;;;39.58;33.32;99982.75;105768;1250;60085;-63
2023/08/21 10:36:42;;;;;;;6.80;4.90;;;;;;;39.25;34.32;99982.87;105702;1254;59986;-62
2023/08/21 10:39:25;;;;;;;6.90;5.50;;;;;;;39.04;34.77;99985.41;105934;1252;63141;-63
2023/08/21 10:42:08;;;;;;;8.10;5.70;;;;;;;38.86;35.29;99987.13;106065;1254;59637;-65
2023/08/21 10:44:41;;;;;;;8.90;5.20;;;;;;;38.71;35.22;99984.45;105705;1255;64198;-63
2023/08/21 10:47:22;;;;;;;8.90;6.50;;;;;;;38.53;36.92;99984.55;105968;1256;59606;-63
2023/08/21 10:49:51;;;;;;;7.40;6.10;;;;;;;38.37;38.38;99977.05;106108;1254;59497;-66
2023/08/21 10:52:26;;;;;;;10.70;9.00;;;;;;;38.21;39.60;99982.97;106062;1254;64916;-64
2023/08/21 10:54:54;;;;;;;15.20;12.20;;;;;;;37.97;40.38;99981.60;106031;1256;59551;-64
2023/08/21 10:57:25;;;;;;;12.50;10.00;;;;;;;37.72;42.05;99986.46;106197;1255;64062;-67
2023/08/21 11:00:00;;;;;;;13.30;10.20;;;;;;;37.48;44.28;99985.67;106024;1264;59596;-62
2023/08/21 11:02:31;;;;;;;15.10;11.30;;;;;;;37.38;46.25;99984.68;105882;1255;59589;-66
2023/08/21 11:05:00;;;;;;;12.80;11.50;;;;;;;37.43;49.51;99982.80;105711;1256;64438;-64
2023/08/21 11:07:28;;;;;;;18.70;16.80;;;;;;;37.67;47.79;99976.63;106012;1254;66745;-61
2023/08/21 11:09:55;;;;;;;16.00;14.10;;;;;;;38.00;46.83;99970.73;105756;1264;62609;-62
2023/08/21 11:12:23;;;;;;;11.80;10.40;;;;;;;38.35;46.23;99966.21;106167;1251;59729;-63
2023/08/21 11:14:50;;;;;;;9.70;7.70;;;;;;;38.69;44.61;99962.88;105688;1251;59155;-61
2023/08/21 11:17:23;;;;;;;8.90;4.70;;;;;;;38.75;41.05;99960.73;106030;1256;64258;-63
2023/08/21 11:19:50;;;;;;;7.80;5.10;;;;;;;38.40;40.18;99963.05;105883;1253;60037;-65
2023/08/21 11:22:17;;;;;;;7.40;5.90;;;;;;;37.85;41.47;99959.64;105907;1256;63946;-64
2023/08/21 11:24:48;;;;;;;19.20;9.80;;;;;;;37.28;43.76;99960.10;105898;1254;59635;-63
2023/08/21 11:27:17;;;;;;;12.00;8.80;;;;;;;36.75;47.60;99958.54;105925;1256;59602;-63
2023/08/21 11:29:45;;;;;;;10.90;8.20;;;;;;;36.61;50.09;99954.32;105995;1253;64229;-65
2023/08/21 11:32:21;;;;;;;13.30;10.40;;;;;;;36.73;47.94;99953.02;106049;1251;59513;-64
2023/08/21 11:34:53;;;;;;;13.70;12.00;;;;;;;36.72;45.67;99946.39;105877;1256;64054;-65